createdAt,value
2023-05-09T00:00:22.454Z,67.39
2023-05-09T00:03:15.284Z,67.44
2023-05-09T00:05:49.923Z,67.65
2023-05-09T00:08:21.651Z,67.33
2023-05-09T00:10:53.873Z,67.49
2023-05-09T00:13:27.286Z,67.58
2023-05-09T00:15:59.964Z,67.59
2023-05-09T00:18:32.594Z,67.88
2023-05-09T00:21:05.541Z,68.01
2023-05-09T00:23:36.905Z,67.63
2023-05-09T00:26:10.878Z,67.75
2023-05-09T00:28:45.754Z,68.32
2023-05-09T00:31:19.404Z,68.21
2023-05-09T00:33:51.902Z,68.21
2023-05-09T00:36:24.064Z,68.33
2023-05-09T00:38:56.792Z,68.60
2023-05-09T00:41:33.303Z,68.30
2023-05-09T00:44:06.991Z,68.89
2023-05-09T00:46:39.404Z,69.11
2023-05-09T00:49:12.962Z,69.80
2023-05-09T00:51:45.215Z,69.61
2023-05-09T00:54:17.926Z,69.70
2023-05-09T00:56:53.181Z,69.82
2023-05-09T00:59:26.842Z,69.65
2023-05-09T01:02:01.637Z,69.67
2023-05-09T01:04:33.358Z,69.87
2023-05-09T01:07:12.495Z,69.83
2023-05-09T01:10:01.767Z,70.18
2023-05-09T01:12:42.757Z,70.22
2023-05-09T01:15:24.185Z,70.18
2023-05-09T01:18:02.083Z,70.22
2023-05-09T01:20:40.624Z,70.17
2023-05-09T01:23:35.865Z,69.77
2023-05-09T01:26:08.633Z,69.79
2023-05-09T01:29:05.654Z,69.69
2023-05-09T01:31:41.556Z,69.53
2023-05-09T01:34:16.378Z,69.79
2023-05-09T01:36:53.279Z,69.77
2023-05-09T01:39:26.048Z,69.86
2023-05-09T01:42:02.984Z,69.62
2023-05-09T01:44:41.109Z,69.44
2023-05-09T01:47:20.612Z,69.21
2023-05-09T01:49:52.812Z,69.26
2023-05-09T01:52:26.741Z,69.40
2023-05-09T01:54:59.197Z,69.36
2023-05-09T01:57:35.456Z,69.51
2023-05-09T02:00:10.384Z,69.17
2023-05-09T02:02:45.300Z,69.41
2023-05-09T02:05:18.402Z,69.35
2023-05-09T02:07:53.141Z,69.46
2023-05-09T02:10:34.127Z,69.73
2023-05-09T02:13:07.298Z,69.84
2023-05-09T02:15:40.763Z,70.06
2023-05-09T02:18:14.569Z,69.94
2023-05-09T02:20:47.501Z,70.06
2023-05-09T02:23:19.492Z,70.17
2023-05-09T02:25:56.913Z,70.09
2023-05-09T02:28:31.280Z,70.24
2023-05-09T02:31:10.124Z,70.36
2023-05-09T02:34:03.566Z,70.74
2023-05-09T02:36:36.006Z,70.78
2023-05-09T02:39:11.514Z,70.74
2023-05-09T02:41:50.824Z,70.69
2023-05-09T02:44:22.615Z,70.58
2023-05-09T02:46:55.680Z,70.62
2023-05-09T02:49:32.350Z,70.80
2023-05-09T02:52:08.024Z,70.76
2023-05-09T02:54:39.990Z,71.06
2023-05-09T02:57:12.542Z,70.95
2023-05-09T02:59:44.075Z,71.17
2023-05-09T03:02:18.445Z,70.91
2023-05-09T03:04:53.516Z,70.76
2023-05-09T03:07:29.344Z,70.58
2023-05-09T03:10:02.275Z,70.61
2023-05-09T03:12:36.541Z,70.60
2023-05-09T03:15:19.091Z,70.60
2023-05-09T03:17:52.457Z,70.76
2023-05-09T03:20:28.143Z,70.66
2023-05-09T03:23:00.976Z,71.03
2023-05-09T03:25:35.337Z,71.20
2023-05-09T03:28:08.015Z,71.11
2023-05-09T03:30:39.417Z,71.08
2023-05-09T03:33:18.518Z,71.17
2023-05-09T03:35:52.766Z,70.97
2023-05-09T03:38:25.905Z,71.19
2023-05-09T03:40:58.267Z,71.34
2023-05-09T03:43:35.973Z,71.39
2023-05-09T03:46:10.020Z,71.46
2023-05-09T03:48:48.624Z,71.47
2023-05-09T03:51:21.629Z,71.77
2023-05-09T03:53:54.231Z,71.83
2023-05-09T03:56:27.666Z,71.69
2023-05-09T03:59:00.451Z,71.71
2023-05-09T04:01:32.454Z,71.67
2023-05-09T04:04:05.963Z,71.80
2023-05-09T04:06:39.859Z,71.72
2023-05-09T04:09:10.873Z,71.63
2023-05-09T04:11:46.331Z,71.36
2023-05-09T04:14:19.357Z,71.35
2023-05-09T04:16:50.556Z,71.13
2023-05-09T04:19:24.090Z,71.22
2023-05-09T04:21:57.060Z,70.85
2023-05-09T04:24:28.353Z,70.52
2023-05-09T04:27:05.196Z,70.55
2023-05-09T04:29:40.141Z,70.49
2023-05-09T04:32:13.366Z,70.19
2023-05-09T04:34:45.959Z,70.06
2023-05-09T04:37:22.343Z,69.56
2023-05-09T04:39:55.456Z,69.54
2023-05-09T04:42:33.899Z,69.40
2023-05-09T04:45:07.424Z,69.26
2023-05-09T04:47:39.199Z,68.99
2023-05-09T04:50:17.025Z,68.78
2023-05-09T04:52:50.199Z,68.89
2023-05-09T04:55:23.613Z,68.84
2023-05-09T04:57:56.943Z,68.64
2023-05-09T05:00:30.669Z,68.21
2023-05-09T05:03:02.774Z,68.27
2023-05-09T05:05:38.415Z,68.15
2023-05-09T05:08:10.993Z,68.20
2023-05-09T05:10:47.626Z,68.04
2023-05-09T05:13:21.599Z,67.96
2023-05-09T05:15:59.286Z,67.70
2023-05-09T05:18:32.354Z,67.89
2023-05-09T05:21:04.523Z,67.75
2023-05-09T05:23:41.084Z,67.55
2023-05-09T05:26:19.007Z,67.60
2023-05-09T05:28:55.688Z,67.68
2023-05-09T05:31:29.445Z,67.51
2023-05-09T05:34:01.796Z,67.05
2023-05-09T05:36:38.391Z,67.26
2023-05-09T05:39:13.028Z,67.22
2023-05-09T05:41:46.644Z,66.64
2023-05-09T05:44:19.878Z,66.30
2023-05-09T05:46:55.528Z,66.37
2023-05-09T05:49:30.812Z,65.77
2023-05-09T05:52:07.154Z,65.53
2023-05-09T05:54:41.759Z,65.22
2023-05-09T05:57:17.300Z,64.71
2023-05-09T05:59:53.609Z,64.61
2023-05-09T06:02:26.818Z,64.16
2023-05-09T06:04:59.243Z,63.70
2023-05-09T06:07:31.200Z,63.22
2023-05-09T06:10:02.461Z,62.66
2023-05-09T06:12:40.216Z,61.92
2023-05-09T06:15:17.250Z,61.40
2023-05-09T06:17:52.905Z,60.97
2023-05-09T06:20:28.038Z,60.84
2023-05-09T06:23:02.917Z,60.12
2023-05-09T06:25:44.077Z,60.26
2023-05-09T06:28:16.444Z,60.04
2023-05-09T06:30:55.774Z,59.59
2023-05-09T06:33:30.180Z,59.36
2023-05-09T06:36:03.510Z,58.98
2023-05-09T06:38:39.240Z,58.82
2023-05-09T06:41:11.854Z,58.59
2023-05-09T06:43:50.149Z,58.24
2023-05-09T06:46:21.930Z,57.90
2023-05-09T06:48:54.645Z,57.48
2023-05-09T06:51:28.768Z,57.09
2023-05-09T06:54:01.251Z,57.02
2023-05-09T06:56:40.072Z,56.67
2023-05-09T06:59:18.055Z,56.27
2023-05-09T07:01:51.144Z,55.63
2023-05-09T07:04:27.944Z,55.14
2023-05-09T07:07:01.657Z,54.81
2023-05-09T07:09:34.128Z,53.99
2023-05-09T07:12:12.480Z,53.88
2023-05-09T07:14:46.617Z,53.20
2023-05-09T07:17:23.995Z,52.45
2023-05-09T07:19:57.489Z,52.35
2023-05-09T07:22:36.324Z,52.59
2023-05-09T07:25:21.513Z,51.66
2023-05-09T07:27:58.592Z,51.01
2023-05-09T07:30:35.541Z,50.40
2023-05-09T07:33:21.458Z,49.28
2023-05-09T07:35:55.765Z,48.98
2023-05-09T07:38:29.220Z,48.04
2023-05-09T07:41:06.874Z,47.88
2023-05-09T07:43:46.472Z,48.02
2023-05-09T07:46:20.324Z,47.88
2023-05-09T07:48:54.878Z,48.40
2023-05-09T07:51:31.779Z,48.05
2023-05-09T07:54:15.641Z,45.30
2023-05-09T07:56:51.105Z,45.57
2023-05-09T07:59:42.272Z,45.64
2023-05-09T08:02:25.022Z,44.90
2023-05-09T08:05:08.268Z,43.65
2023-05-09T08:07:40.278Z,43.22
2023-05-09T08:10:14.485Z,43.08
2023-05-09T08:12:53.331Z,43.25
2023-05-09T08:15:27.263Z,43.33
2023-05-09T08:18:00.423Z,42.14
2023-05-09T08:20:35.926Z,41.14
2023-05-09T08:23:09.222Z,40.46
2023-05-09T08:25:41.771Z,40.86
2023-05-09T08:28:14.076Z,40.88
2023-05-09T08:30:46.788Z,41.45
2023-05-09T08:33:21.483Z,41.02
2023-05-09T08:35:56.244Z,41.41
2023-05-09T08:38:29.988Z,41.27
2023-05-09T08:41:04.767Z,40.33
2023-05-09T08:43:45.228Z,39.57
2023-05-09T08:46:19.908Z,39.03
2023-05-09T08:48:50.944Z,38.40
2023-05-09T08:51:26.572Z,38.81
2023-05-09T08:53:59.403Z,39.64
2023-05-09T08:56:34.515Z,39.28
2023-05-09T08:59:05.972Z,39.13
2023-05-09T09:01:49.277Z,38.93
2023-05-09T09:04:20.664Z,38.90
2023-05-09T09:06:55.307Z,38.76
2023-05-09T09:09:28.093Z,38.75
2023-05-09T09:12:02.001Z,38.67
2023-05-09T09:14:39.852Z,38.62
2023-05-09T09:17:16.853Z,38.12
2023-05-09T09:19:54.022Z,38.36
2023-05-09T09:22:32.514Z,38.25
2023-05-09T09:25:05.130Z,38.18
2023-05-09T09:27:37.522Z,38.06
2023-05-09T09:30:16.098Z,38.10
2023-05-09T09:32:50.964Z,37.95
2023-05-09T09:35:25.042Z,37.66
2023-05-09T09:38:00.495Z,37.85
2023-05-09T09:40:33.907Z,38.33
2023-05-09T09:43:09.105Z,38.52
2023-05-09T09:45:46.956Z,38.34
2023-05-09T09:48:23.581Z,39.14
2023-05-09T09:50:57.636Z,38.95
2023-05-09T09:53:32.098Z,37.88
2023-05-09T09:56:04.963Z,38.17
2023-05-09T09:58:37.337Z,38.31
2023-05-09T10:01:15.458Z,38.51
2023-05-09T10:03:51.948Z,38.18
2023-05-09T10:06:27.865Z,37.97
2023-05-09T10:09:02.069Z,37.99
2023-05-09T10:11:36.885Z,38.06
2023-05-09T10:14:12.298Z,37.78
2023-05-09T10:16:51.009Z,37.37
2023-05-09T10:19:26.837Z,37.03
2023-05-09T10:22:04.032Z,36.91
2023-05-09T10:24:45.844Z,37.30
2023-05-09T10:27:21.630Z,37.05
2023-05-09T10:29:57.985Z,37.12
2023-05-09T10:32:32.229Z,37.47
2023-05-09T10:35:11.413Z,37.09
2023-05-09T10:37:45.800Z,37.26
2023-05-09T10:40:20.799Z,36.70
2023-05-09T10:42:53.217Z,36.83
2023-05-09T10:45:26.847Z,36.53
2023-05-09T10:48:04.060Z,36.54
2023-05-09T10:50:42.462Z,36.25
2023-05-09T10:53:17.936Z,36.51
2023-05-09T10:55:53.828Z,36.31
2023-05-09T10:58:32.089Z,36.35
2023-05-09T11:01:05.866Z,36.74
2023-05-09T11:03:59.045Z,36.52
2023-05-09T11:06:47.176Z,36.58
2023-05-09T11:09:30.636Z,36.48
2023-05-09T11:12:11.935Z,35.55
2023-05-09T11:14:46.362Z,35.57
2023-05-09T11:17:34.167Z,34.99
2023-05-09T11:20:12.933Z,34.83
2023-05-09T11:22:47.485Z,34.90
2023-05-09T11:25:26.226Z,34.53
2023-05-09T11:28:03.438Z,34.97
2023-05-09T11:30:43.275Z,35.38
2023-05-09T11:33:26.404Z,35.12
2023-05-09T11:36:25.691Z,34.22
2023-05-09T11:39:06.542Z,34.17
2023-05-09T11:41:44.635Z,34.09
2023-05-09T11:44:18.883Z,33.83
2023-05-09T11:46:52.513Z,33.48
2023-05-09T11:49:25.091Z,34.05
2023-05-09T11:52:02.121Z,34.42
2023-05-09T11:54:32.377Z,34.48
2023-05-09T11:57:05.827Z,34.65
2023-05-09T11:59:40.503Z,34.87
2023-05-09T12:02:13.273Z,34.59
2023-05-09T12:04:46.125Z,33.85
2023-05-09T12:07:22.130Z,33.95
2023-05-09T12:10:13.388Z,33.78
2023-05-09T12:12:48.654Z,33.93
2023-05-09T12:15:20.806Z,34.01
2023-05-09T12:18:05.248Z,33.49
2023-05-09T12:20:48.509Z,33.48
2023-05-09T12:23:19.661Z,33.89
2023-05-09T12:25:58.388Z,34.14
2023-05-09T12:28:31.945Z,33.90
2023-05-09T12:31:06.682Z,33.93
2023-05-09T12:33:42.686Z,34.22
2023-05-09T12:36:16.001Z,34.35
2023-05-09T12:38:55.564Z,33.80
2023-05-09T12:41:38.965Z,33.86
2023-05-09T12:44:25.695Z,33.69
2023-05-09T12:47:01.784Z,33.82
2023-05-09T12:49:38.596Z,33.81
2023-05-09T12:52:21.378Z,33.35
2023-05-09T12:54:56.242Z,33.37
2023-05-09T12:57:30.792Z,33.87
2023-05-09T13:00:06.430Z,33.77
2023-05-09T13:02:42.297Z,33.91
2023-05-09T13:05:20.734Z,33.74
2023-05-09T13:07:57.604Z,33.71
2023-05-09T13:10:31.572Z,33.76
2023-05-09T13:13:07.737Z,33.45
2023-05-09T13:15:42.248Z,33.16
2023-05-09T13:18:15.415Z,32.79
2023-05-09T13:20:48.499Z,33.13
2023-05-09T13:23:21.953Z,32.92
2023-05-09T13:25:56.257Z,32.99
2023-05-09T13:28:31.831Z,33.25
2023-05-09T13:31:05.731Z,33.33
2023-05-09T13:33:39.123Z,33.53
2023-05-09T13:36:11.633Z,33.22
2023-05-09T13:38:45.735Z,33.01
2023-05-09T13:41:23.038Z,32.73
2023-05-09T13:43:57.494Z,32.72
2023-05-09T13:46:30.998Z,32.64
2023-05-09T13:49:03.569Z,32.90
2023-05-09T13:51:35.314Z,32.76
2023-05-09T13:54:12.011Z,31.97
2023-05-09T13:56:44.686Z,31.74
2023-05-09T13:59:16.830Z,31.87
2023-05-09T14:01:50.187Z,31.77
2023-05-09T14:04:24.053Z,32.04
2023-05-09T14:06:55.101Z,32.04
2023-05-09T14:09:29.305Z,31.88
2023-05-09T14:12:02.420Z,31.60
2023-05-09T14:14:36.838Z,31.60
2023-05-09T14:17:09.366Z,32.00
2023-05-09T14:19:42.838Z,32.18
2023-05-09T14:22:16.185Z,32.61
2023-05-09T14:24:49.863Z,32.58
2023-05-09T14:27:21.199Z,32.07
2023-05-09T14:29:56.372Z,31.71
2023-05-09T14:32:29.716Z,31.71
2023-05-09T14:35:02.945Z,32.11
2023-05-09T14:37:36.266Z,32.09
2023-05-09T14:40:13.793Z,31.68
2023-05-09T14:42:45.771Z,31.77
2023-05-09T14:45:18.188Z,31.72
2023-05-09T14:47:50.356Z,31.63
2023-05-09T14:50:22.866Z,31.80
2023-05-09T14:52:54.719Z,31.24
2023-05-09T14:55:27.961Z,31.46
2023-05-09T14:58:03.023Z,31.25
2023-05-09T15:00:37.875Z,31.11
2023-05-09T15:03:11.120Z,31.25
2023-05-09T15:05:43.837Z,31.24
2023-05-09T15:08:15.816Z,31.57
2023-05-09T15:10:51.016Z,31.45
2023-05-09T15:13:23.312Z,31.19
2023-05-09T15:15:55.833Z,31.19
2023-05-09T15:18:28.657Z,30.96
2023-05-09T15:21:00.156Z,31.20
2023-05-09T15:23:49.549Z,31.44
2023-05-09T15:26:23.009Z,31.88
2023-05-09T15:28:55.458Z,31.89
2023-05-09T15:31:30.667Z,32.15
2023-05-09T15:34:03.290Z,31.52
2023-05-09T15:36:35.420Z,30.96
2023-05-09T15:39:07.002Z,31.23
2023-05-09T15:41:39.579Z,31.00
2023-05-09T15:44:11.582Z,31.06
2023-05-09T15:46:45.305Z,30.84
2023-05-09T15:49:17.885Z,31.22
2023-05-09T15:51:50.733Z,31.13
2023-05-09T15:54:25.037Z,31.06
2023-05-09T15:56:57.821Z,31.38
2023-05-09T15:59:31.838Z,31.42
2023-05-09T16:02:03.960Z,32.15
2023-05-09T16:04:37.178Z,31.85
2023-05-09T16:07:11.754Z,31.29
2023-05-09T16:09:42.954Z,31.07
2023-05-09T16:12:16.063Z,30.93
2023-05-09T16:14:48.235Z,30.89
2023-05-09T16:17:21.015Z,30.35
2023-05-09T16:19:55.531Z,30.41
2023-05-09T16:22:29.561Z,30.44
2023-05-09T16:25:03.175Z,30.39
2023-05-09T16:27:35.598Z,30.35
2023-05-09T16:30:13.527Z,30.55
2023-05-09T16:32:45.214Z,30.37
2023-05-09T16:35:17.820Z,30.51
2023-05-09T16:37:49.138Z,30.46
2023-05-09T16:40:21.816Z,30.31
2023-05-09T16:42:54.310Z,30.34
2023-05-09T16:45:26.239Z,30.56
2023-05-09T16:48:00.646Z,30.47
2023-05-09T16:50:35.322Z,30.42
2023-05-09T16:53:08.183Z,30.49
2023-05-09T16:55:56.609Z,30.66
2023-05-09T16:58:29.704Z,30.43
2023-05-09T17:01:04.740Z,30.69
2023-05-09T17:03:43.939Z,30.99
2023-05-09T17:06:16.656Z,30.90
2023-05-09T17:08:52.841Z,31.17
2023-05-09T17:11:26.291Z,31.26
2023-05-09T17:14:00.095Z,31.53
2023-05-09T17:16:34.243Z,31.64
2023-05-09T17:19:07.533Z,31.93
2023-05-09T17:21:42.874Z,32.00
2023-05-09T17:24:15.968Z,32.23
2023-05-09T17:26:47.972Z,31.99
2023-05-09T17:29:19.898Z,32.25
2023-05-09T17:31:53.748Z,32.53
2023-05-09T17:34:28.621Z,32.41
2023-05-09T17:37:02.363Z,32.98
2023-05-09T17:39:37.390Z,32.85
2023-05-09T17:42:11.366Z,32.85
2023-05-09T17:44:47.501Z,32.77
2023-05-09T17:47:19.547Z,32.76
2023-05-09T17:49:53.681Z,33.31
2023-05-09T17:52:25.542Z,33.25
2023-05-09T17:54:57.873Z,33.37
2023-05-09T17:57:29.699Z,33.44
2023-05-09T18:00:02.611Z,33.49
2023-05-09T18:02:49.970Z,33.71
2023-05-09T18:05:23.345Z,33.93
2023-05-09T18:08:00.381Z,33.93
2023-05-09T18:10:36.343Z,34.06
2023-05-09T18:13:10.923Z,34.34
2023-05-09T18:15:43.805Z,34.38
2023-05-09T18:18:16.783Z,34.44
2023-05-09T18:20:57.578Z,34.68
2023-05-09T18:23:31.434Z,34.81
2023-05-09T18:26:04.112Z,34.81
2023-05-09T18:28:39.897Z,35.09
2023-05-09T18:31:12.915Z,35.26
2023-05-09T18:33:46.754Z,35.14
2023-05-09T18:36:20.044Z,35.34
2023-05-09T18:38:51.613Z,35.60
2023-05-09T18:41:25.160Z,35.73
2023-05-09T18:43:59.469Z,35.74
2023-05-09T18:46:33.702Z,36.10
2023-05-09T18:49:06.452Z,36.03
2023-05-09T18:51:39.556Z,36.01
2023-05-09T18:54:15.361Z,36.29
2023-05-09T18:56:49.681Z,36.53
2023-05-09T18:59:22.316Z,36.67
2023-05-09T19:01:57.436Z,36.84
2023-05-09T19:04:30.747Z,36.97
2023-05-09T19:07:03.382Z,37.24
2023-05-09T19:09:36.559Z,37.38
2023-05-09T19:12:11.436Z,37.37
2023-05-09T19:14:43.589Z,37.45
2023-05-09T19:17:17.475Z,37.79
2023-05-09T19:19:50.011Z,37.85
2023-05-09T19:22:30.333Z,38.07
2023-05-09T19:25:03.485Z,38.35
2023-05-09T19:27:34.329Z,38.42
2023-05-09T19:30:09.221Z,38.62
2023-05-09T19:32:42.173Z,38.49
2023-05-09T19:35:14.208Z,38.70
2023-05-09T19:37:47.512Z,38.81
2023-05-09T19:40:28.068Z,38.86
2023-05-09T19:43:02.311Z,39.08
2023-05-09T19:45:34.955Z,39.20
2023-05-09T19:48:25.486Z,39.30
2023-05-09T19:51:00.172Z,39.46
2023-05-09T19:53:32.511Z,39.56
2023-05-09T19:56:07.453Z,39.58
2023-05-09T19:58:49.889Z,39.89
2023-05-09T20:01:28.934Z,40.07
2023-05-09T20:04:06.672Z,40.25
2023-05-09T20:06:50.985Z,40.50
2023-05-09T20:09:24.736Z,40.61
2023-05-09T20:12:01.355Z,40.67
2023-05-09T20:14:36.783Z,40.85
2023-05-09T20:17:12.398Z,40.82
2023-05-09T20:19:43.871Z,41.01
2023-05-09T20:22:15.321Z,41.24
2023-05-09T20:24:46.905Z,41.32
2023-05-09T20:27:18.248Z,41.53
2023-05-09T20:29:50.534Z,41.51
2023-05-09T20:32:31.639Z,41.59
2023-05-09T20:35:05.936Z,41.71
2023-05-09T20:37:39.492Z,41.99
2023-05-09T20:40:39.996Z,42.25
2023-05-09T20:43:11.371Z,42.17
2023-05-09T20:45:44.944Z,42.12
2023-05-09T20:48:16.861Z,42.30
2023-05-09T20:50:53.118Z,42.49
2023-05-09T20:53:34.596Z,42.41
2023-05-09T20:56:16.377Z,42.55
2023-05-09T20:58:53.685Z,42.68
2023-05-09T21:01:41.857Z,42.96
2023-05-09T21:04:12.705Z,42.99
2023-05-09T21:06:48.900Z,43.08
2023-05-09T21:09:22.184Z,43.13
2023-05-09T21:11:57.143Z,43.32
2023-05-09T21:14:36.147Z,43.43
2023-05-09T21:17:10.757Z,43.64
2023-05-09T21:20:01.125Z,43.88
2023-05-09T21:22:34.985Z,44.06
2023-05-09T21:25:11.053Z,44.02
2023-05-09T21:27:51.686Z,44.06
2023-05-09T21:30:25.237Z,44.17
2023-05-09T21:33:00.792Z,44.45
2023-05-09T21:35:38.142Z,44.55
2023-05-09T21:38:10.728Z,44.75
2023-05-09T21:40:46.129Z,44.87
2023-05-09T21:43:33.083Z,45.13
2023-05-09T21:46:13.730Z,45.07
2023-05-09T21:48:47.806Z,45.25
2023-05-09T21:51:30.998Z,45.30
2023-05-09T21:54:08.937Z,45.39
2023-05-09T21:56:57.665Z,45.56
2023-05-09T21:59:29.916Z,45.35
2023-05-09T22:02:06.393Z,45.69
2023-05-09T22:04:42.372Z,45.65
2023-05-09T22:07:15.811Z,45.77
2023-05-09T22:10:07.941Z,45.85
2023-05-09T22:12:41.388Z,45.96
2023-05-09T22:15:18.514Z,46.13
2023-05-09T22:17:53.858Z,46.20
2023-05-09T22:20:48.948Z,46.52
2023-05-09T22:23:25.092Z,46.63
2023-05-09T22:26:03.203Z,46.90
2023-05-09T22:28:44.736Z,46.86
2023-05-09T22:31:43.234Z,46.94
2023-05-09T22:34:18.497Z,47.05
2023-05-09T22:36:55.841Z,47.28
2023-05-09T22:39:31.162Z,47.30
2023-05-09T22:42:10.712Z,47.54
2023-05-09T22:44:52.180Z,47.60
2023-05-09T22:47:30.268Z,47.63
2023-05-09T22:50:11.311Z,47.65
2023-05-09T22:53:02.394Z,47.81
2023-05-09T22:55:45.456Z,47.67
2023-05-09T22:58:29.701Z,48.09
2023-05-09T23:01:09.190Z,48.25
2023-05-09T23:03:49.431Z,48.25
2023-05-09T23:06:26.245Z,48.06
2023-05-09T23:09:21.564Z,48.28
2023-05-09T23:12:01.776Z,48.40
2023-05-09T23:14:42.806Z,48.41
2023-05-09T23:17:22.289Z,48.40
2023-05-09T23:20:06.858Z,48.56
2023-05-09T23:22:44.312Z,48.52
2023-05-09T23:25:22.495Z,48.75
2023-05-09T23:28:06.296Z,48.74
2023-05-09T23:30:41.862Z,48.81
2023-05-09T23:33:18.956Z,48.84
2023-05-09T23:36:06.974Z,49.00
2023-05-09T23:38:49.856Z,49.03
2023-05-09T23:41:33.771Z,49.14
2023-05-09T23:44:14.762Z,49.34
2023-05-09T23:46:52.130Z,49.45
2023-05-09T23:49:33.104Z,49.55
2023-05-09T23:52:13.066Z,49.51
2023-05-09T23:54:55.870Z,49.59
2023-05-09T23:57:50.668Z,49.76
